Terminal Aerodrome Forecast
Issued by NWS Pittsburgh, PA

Current Version | Previous Version | Graphics & Text | Print | Product List | Glossary On
Versions: 1 2 3 4 5 6 7 8 9 10 11 12 13 14 15 16 17 18 19 20 21 22 23 24 25 26 27 28 29 30 31 32 33
280
FTUS41 KPBZ 211458 AAA
TAFPIT
TAF AMD
KPIT 211458Z 2115/2218 10006KT 3SM BR VCSH BKN007 OVC014
     FM211800 06007KT 3SM -SHRA BR OVC006
     FM220000 02006KT 2SM BR OVC003
     FM221500 33005KT P6SM BKN025=

USA.gov is the U.S. government's official web portal to all federal, state and local government web resources and services.